sensor_id;sensor_type;location;lat;lon;timestamp;temperature;humidity
14877;DHT22;69691;48.172;17.070;2023-06-22T00:01:10;22.40;99.90
14877;DHT22;69691;48.172;17.070;2023-06-22T00:03:36;22.30;99.90
14877;DHT22;69691;48.172;17.070;2023-06-22T00:06:02;22.20;99.90
14877;DHT22;69691;48.172;17.070;2023-06-22T00:08:28;22.20;99.90
14877;DHT22;69691;48.172;17.070;2023-06-22T00:10:53;22.10;99.90
14877;DHT22;69691;48.172;17.070;2023-06-22T00:13:19;22.10;99.90
14877;DHT22;69691;48.172;17.070;2023-06-22T00:15:45;22.10;99.90
14877;DHT22;69691;48.172;17.070;2023-06-22T00:18:11;22.00;99.90
14877;DHT22;69691;48.172;17.070;2023-06-22T00:20:39;22.00;99.90
14877;DHT22;69691;48.172;17.070;2023-06-22T00:23:06;21.90;99.90
14877;DHT22;69691;48.172;17.070;2023-06-22T00:25:38;21.90;99.90
14877;DHT22;69691;48.172;17.070;2023-06-22T00:28:07;21.90;99.90
14877;DHT22;69691;48.172;17.070;2023-06-22T00:30:34;21.80;99.90
14877;DHT22;69691;48.172;17.070;2023-06-22T00:33:01;21.80;99.90
14877;DHT22;69691;48.172;17.070;2023-06-22T00:35:27;21.70;99.90
14877;DHT22;69691;48.172;17.070;2023-06-22T00:37:56;21.70;99.90
14877;DHT22;69691;48.172;17.070;2023-06-22T00:40:33;21.70;99.90
14877;DHT22;69691;48.172;17.070;2023-06-22T00:42:59;21.60;99.90
14877;DHT22;69691;48.172;17.070;2023-06-22T00:45:26;21.60;99.90
14877;DHT22;69691;48.172;17.070;2023-06-22T00:47:53;21.60;99.90
14877;DHT22;69691;48.172;17.070;2023-06-22T00:50:23;21.50;99.90
14877;DHT22;69691;48.172;17.070;2023-06-22T00:52:52;21.50;99.90
14877;DHT22;69691;48.172;17.070;2023-06-22T00:55:25;21.50;99.90
14877;DHT22;69691;48.172;17.070;2023-06-22T00:57:52;21.40;99.90
14877;DHT22;69691;48.172;17.070;2023-06-22T01:00:23;21.40;99.90
14877;DHT22;69691;48.172;17.070;2023-06-22T01:02:51;21.40;99.90
14877;DHT22;69691;48.172;17.070;2023-06-22T01:05:20;21.40;99.90
14877;DHT22;69691;48.172;17.070;2023-06-22T01:16:15;21.30;99.90
14877;DHT22;69691;48.172;17.070;2023-06-22T01:18:46;21.30;99.90
14877;DHT22;69691;48.172;17.070;2023-06-22T01:21:16;21.20;99.90
14877;DHT22;69691;48.172;17.070;2023-06-22T01:27:23;21.10;99.90
14877;DHT22;69691;48.172;17.070;2023-06-22T01:30:13;21.10;99.90
14877;DHT22;69691;48.172;17.070;2023-06-22T01:32:42;21.10;99.90
14877;DHT22;69691;48.172;17.070;2023-06-22T01:35:09;21.10;99.90
14877;DHT22;69691;48.172;17.070;2023-06-22T01:37:37;21.10;99.90
14877;DHT22;69691;48.172;17.070;2023-06-22T01:40:07;21.10;99.90
14877;DHT22;69691;48.172;17.070;2023-06-22T01:42:35;21.10;99.90
14877;DHT22;69691;48.172;17.070;2023-06-22T01:45:02;21.00;99.90
14877;DHT22;69691;48.172;17.070;2023-06-22T01:47:29;21.00;99.90
14877;DHT22;69691;48.172;17.070;2023-06-22T01:49:56;21.00;99.90
14877;DHT22;69691;48.172;17.070;2023-06-22T01:52:22;21.00;99.90
14877;DHT22;69691;48.172;17.070;2023-06-22T01:54:48;21.00;99.90
14877;DHT22;69691;48.172;17.070;2023-06-22T01:57:14;21.00;99.90
14877;DHT22;69691;48.172;17.070;2023-06-22T01:59:59;21.00;99.90
14877;DHT22;69691;48.172;17.070;2023-06-22T02:02:32;21.00;99.90
14877;DHT22;69691;48.172;17.070;2023-06-22T02:05:06;21.00;99.90
14877;DHT22;69691;48.172;17.070;2023-06-22T02:07:35;20.90;99.90
14877;DHT22;69691;48.172;17.070;2023-06-22T02:10:08;20.90;99.90
14877;DHT22;69691;48.172;17.070;2023-06-22T02:12:38;20.90;99.90
14877;DHT22;69691;48.172;17.070;2023-06-22T02:15:05;20.90;99.90
14877;DHT22;69691;48.172;17.070;2023-06-22T02:17:33;20.90;99.90
14877;DHT22;69691;48.172;17.070;2023-06-22T02:20:04;20.90;99.90
14877;DHT22;69691;48.172;17.070;2023-06-22T02:22:35;20.90;99.90
14877;DHT22;69691;48.172;17.070;2023-06-22T02:25:01;20.90;99.90
14877;DHT22;69691;48.172;17.070;2023-06-22T02:27:28;20.90;99.90
14877;DHT22;69691;48.172;17.070;2023-06-22T02:29:53;20.90;99.90
14877;DHT22;69691;48.172;17.070;2023-06-22T02:32:19;20.90;99.90
14877;DHT22;69691;48.172;17.070;2023-06-22T02:34:46;20.80;99.90
14877;DHT22;69691;48.172;17.070;2023-06-22T02:37:15;20.80;99.90
14877;DHT22;69691;48.172;17.070;2023-06-22T02:39:41;20.80;99.90
14877;DHT22;69691;48.172;17.070;2023-06-22T02:42:07;20.80;99.90
14877;DHT22;69691;48.172;17.070;2023-06-22T02:44:33;20.70;99.90
14877;DHT22;69691;48.172;17.070;2023-06-22T02:46:59;20.70;99.90
14877;DHT22;69691;48.172;17.070;2023-06-22T02:49:25;20.70;99.90
14877;DHT22;69691;48.172;17.070;2023-06-22T02:51:51;20.70;99.90
14877;DHT22;69691;48.172;17.070;2023-06-22T02:54:20;20.70;99.90
14877;DHT22;69691;48.172;17.070;2023-06-22T02:56:48;20.70;99.90
14877;DHT22;69691;48.172;17.070;2023-06-22T02:59:14;20.70;99.90
14877;DHT22;69691;48.172;17.070;2023-06-22T03:01:40;20.70;99.90
14877;DHT22;69691;48.172;17.070;2023-06-22T03:04:13;20.70;99.90
14877;DHT22;69691;48.172;17.070;2023-06-22T03:06:39;20.70;99.90
14877;DHT22;69691;48.172;17.070;2023-06-22T03:09:07;20.70;99.90
14877;DHT22;69691;48.172;17.070;2023-06-22T03:11:35;20.70;99.90
14877;DHT22;69691;48.172;17.070;2023-06-22T03:14:01;20.70;99.90
14877;DHT22;69691;48.172;17.070;2023-06-22T03:16:28;20.70;99.90
14877;DHT22;69691;48.172;17.070;2023-06-22T03:18:55;20.70;99.90
14877;DHT22;69691;48.172;17.070;2023-06-22T03:21:22;20.70;99.90
14877;DHT22;69691;48.172;17.070;2023-06-22T03:23:48;20.80;99.90
14877;DHT22;69691;48.172;17.070;2023-06-22T03:26:18;20.80;99.90
14877;DHT22;69691;48.172;17.070;2023-06-22T03:28:45;20.90;99.90
14877;DHT22;69691;48.172;17.070;2023-06-22T03:31:11;21.00;99.90
14877;DHT22;69691;48.172;17.070;2023-06-22T03:33:39;21.00;99.90
14877;DHT22;69691;48.172;17.070;2023-06-22T03:36:05;21.00;99.90
14877;DHT22;69691;48.172;17.070;2023-06-22T03:38:31;21.10;99.90
14877;DHT22;69691;48.172;17.070;2023-06-22T03:40:57;21.10;99.90
14877;DHT22;69691;48.172;17.070;2023-06-22T03:43:24;21.20;99.90
14877;DHT22;69691;48.172;17.070;2023-06-22T03:45:50;21.30;99.90
14877;DHT22;69691;48.172;17.070;2023-06-22T03:48:16;21.40;99.90
14877;DHT22;69691;48.172;17.070;2023-06-22T03:50:42;21.40;99.90
14877;DHT22;69691;48.172;17.070;2023-06-22T03:53:09;21.50;99.90
14877;DHT22;69691;48.172;17.070;2023-06-22T03:55:36;21.50;99.90
14877;DHT22;69691;48.172;17.070;2023-06-22T03:58:02;21.50;99.90
14877;DHT22;69691;48.172;17.070;2023-06-22T04:00:31;21.60;99.90
14877;DHT22;69691;48.172;17.070;2023-06-22T04:02:57;21.60;99.90
14877;DHT22;69691;48.172;17.070;2023-06-22T04:05:23;21.60;99.90
14877;DHT22;69691;48.172;17.070;2023-06-22T04:07:50;21.60;99.90
14877;DHT22;69691;48.172;17.070;2023-06-22T04:10:15;21.60;99.90
14877;DHT22;69691;48.172;17.070;2023-06-22T04:12:41;21.70;99.90
14877;DHT22;69691;48.172;17.070;2023-06-22T04:15:07;21.80;99.90
14877;DHT22;69691;48.172;17.070;2023-06-22T04:17:34;21.90;99.90
14877;DHT22;69691;48.172;17.070;2023-06-22T04:19:59;22.00;99.90
14877;DHT22;69691;48.172;17.070;2023-06-22T04:22:25;22.10;99.90
14877;DHT22;69691;48.172;17.070;2023-06-22T04:24:51;22.20;99.90
14877;DHT22;69691;48.172;17.070;2023-06-22T04:27:18;22.30;99.90
14877;DHT22;69691;48.172;17.070;2023-06-22T04:29:45;22.40;99.90
14877;DHT22;69691;48.172;17.070;2023-06-22T04:32:15;22.50;99.90
14877;DHT22;69691;48.172;17.070;2023-06-22T04:34:43;22.60;99.90
14877;DHT22;69691;48.172;17.070;2023-06-22T04:37:09;22.70;99.70
14877;DHT22;69691;48.172;17.070;2023-06-22T04:39:42;22.80;99.10
14877;DHT22;69691;48.172;17.070;2023-06-22T04:42:08;22.90;99.00
14877;DHT22;69691;48.172;17.070;2023-06-22T04:44:34;23.00;98.80
14877;DHT22;69691;48.172;17.070;2023-06-22T04:47:01;23.20;98.50
14877;DHT22;69691;48.172;17.070;2023-06-22T04:49:30;23.30;98.40
14877;DHT22;69691;48.172;17.070;2023-06-22T04:52:01;23.40;98.30
14877;DHT22;69691;48.172;17.070;2023-06-22T04:54:28;23.50;98.30
14877;DHT22;69691;48.172;17.070;2023-06-22T04:56:54;23.70;98.00
14877;DHT22;69691;48.172;17.070;2023-06-22T04:59:24;23.80;97.40
14877;DHT22;69691;48.172;17.070;2023-06-22T05:02:00;23.80;96.40
14877;DHT22;69691;48.172;17.070;2023-06-22T05:04:28;23.90;96.10
14877;DHT22;69691;48.172;17.070;2023-06-22T05:06:57;24.00;95.80
14877;DHT22;69691;48.172;17.070;2023-06-22T05:09:24;24.20;95.30
14877;DHT22;69691;48.172;17.070;2023-06-22T05:11:53;24.30;94.70
14877;DHT22;69691;48.172;17.070;2023-06-22T05:14:18;24.50;94.60
14877;DHT22;69691;48.172;17.070;2023-06-22T05:16:45;25.00;94.10
14877;DHT22;69691;48.172;17.070;2023-06-22T05:19:12;25.50;93.10
14877;DHT22;69691;48.172;17.070;2023-06-22T05:21:38;26.10;92.00
14877;DHT22;69691;48.172;17.070;2023-06-22T05:24:04;26.60;90.20
14877;DHT22;69691;48.172;17.070;2023-06-22T05:26:32;27.00;86.40
14877;DHT22;69691;48.172;17.070;2023-06-22T05:28:59;27.50;84.20
14877;DHT22;69691;48.172;17.070;2023-06-22T05:31:26;27.80;79.90
14877;DHT22;69691;48.172;17.070;2023-06-22T05:33:54;28.10;77.40
14877;DHT22;69691;48.172;17.070;2023-06-22T05:36:21;28.50;75.70
14877;DHT22;69691;48.172;17.070;2023-06-22T05:38:51;28.80;73.10
14877;DHT22;69691;48.172;17.070;2023-06-22T05:41:17;29.20;72.10
14877;DHT22;69691;48.172;17.070;2023-06-22T05:43:43;29.50;70.00
14877;DHT22;69691;48.172;17.070;2023-06-22T05:46:09;29.70;67.90
14877;DHT22;69691;48.172;17.070;2023-06-22T05:48:35;29.90;66.60
14877;DHT22;69691;48.172;17.070;2023-06-22T05:51:01;30.20;65.90
14877;DHT22;69691;48.172;17.070;2023-06-22T05:53:26;30.40;63.80
14877;DHT22;69691;48.172;17.070;2023-06-22T05:55:52;30.50;63.40
14877;DHT22;69691;48.172;17.070;2023-06-22T05:58:18;30.80;63.00
14877;DHT22;69691;48.172;17.070;2023-06-22T06:00:44;31.00;61.40
14877;DHT22;69691;48.172;17.070;2023-06-22T06:03:11;31.20;61.60
14877;DHT22;69691;48.172;17.070;2023-06-22T06:05:37;31.40;59.40
14877;DHT22;69691;48.172;17.070;2023-06-22T06:08:05;31.60;59.30
14877;DHT22;69691;48.172;17.070;2023-06-22T06:10:32;31.80;58.90
14877;DHT22;69691;48.172;17.070;2023-06-22T06:12:59;31.90;57.80
14877;DHT22;69691;48.172;17.070;2023-06-22T06:15:28;32.00;56.90
14877;DHT22;69691;48.172;17.070;2023-06-22T06:17:54;32.00;57.10
14877;DHT22;69691;48.172;17.070;2023-06-22T06:20:22;32.00;57.40
14877;DHT22;69691;48.172;17.070;2023-06-22T06:22:49;32.00;55.40
14877;DHT22;69691;48.172;17.070;2023-06-22T06:25:16;31.70;54.90
14877;DHT22;69691;48.172;17.070;2023-06-22T06:27:43;31.50;54.90
14877;DHT22;69691;48.172;17.070;2023-06-22T06:30:14;31.40;55.40
14877;DHT22;69691;48.172;17.070;2023-06-22T06:32:43;31.40;55.30
14877;DHT22;69691;48.172;17.070;2023-06-22T06:35:12;31.70;55.70
14877;DHT22;69691;48.172;17.070;2023-06-22T06:37:41;31.90;55.40
14877;DHT22;69691;48.172;17.070;2023-06-22T06:40:09;32.10;54.70
14877;DHT22;69691;48.172;17.070;2023-06-22T06:42:47;32.10;53.80
14877;DHT22;69691;48.172;17.070;2023-06-22T06:45:23;32.20;53.80
14877;DHT22;69691;48.172;17.070;2023-06-22T06:47:51;32.20;52.70
14877;DHT22;69691;48.172;17.070;2023-06-22T06:50:18;31.90;53.20
14877;DHT22;69691;48.172;17.070;2023-06-22T06:52:44;31.90;53.00
14877;DHT22;69691;48.172;17.070;2023-06-22T06:55:11;31.80;53.10
14877;DHT22;69691;48.172;17.070;2023-06-22T06:57:40;31.70;53.90
14877;DHT22;69691;48.172;17.070;2023-06-22T07:00:11;31.80;53.80
14877;DHT22;69691;48.172;17.070;2023-06-22T07:02:43;31.90;54.00
14877;DHT22;69691;48.172;17.070;2023-06-22T07:05:10;32.00;54.00
14877;DHT22;69691;48.172;17.070;2023-06-22T07:07:37;32.00;54.40
14877;DHT22;69691;48.172;17.070;2023-06-22T07:10:07;32.30;54.20
14877;DHT22;69691;48.172;17.070;2023-06-22T07:12:33;32.20;53.70
14877;DHT22;69691;48.172;17.070;2023-06-22T07:15:09;32.10;54.00
14877;DHT22;69691;48.172;17.070;2023-06-22T07:17:37;32.00;53.90
14877;DHT22;69691;48.172;17.070;2023-06-22T07:20:04;31.90;53.90
14877;DHT22;69691;48.172;17.070;2023-06-22T07:22:40;31.90;54.10
14877;DHT22;69691;48.172;17.070;2023-06-22T07:25:08;32.00;54.30
14877;DHT22;69691;48.172;17.070;2023-06-22T07:27:40;32.20;53.30
14877;DHT22;69691;48.172;17.070;2023-06-22T07:30:09;32.40;52.10
14877;DHT22;69691;48.172;17.070;2023-06-22T07:32:36;32.30;51.70
14877;DHT22;69691;48.172;17.070;2023-06-22T07:35:02;32.10;51.80
14877;DHT22;69691;48.172;17.070;2023-06-22T07:37:29;32.00;52.00
14877;DHT22;69691;48.172;17.070;2023-06-22T07:39:56;32.00;52.10
14877;DHT22;69691;48.172;17.070;2023-06-22T07:42:25;32.00;51.80
14877;DHT22;69691;48.172;17.070;2023-06-22T07:44:52;32.10;52.20
14877;DHT22;69691;48.172;17.070;2023-06-22T07:47:18;32.20;52.00
14877;DHT22;69691;48.172;17.070;2023-06-22T07:49:45;32.30;51.70
14877;DHT22;69691;48.172;17.070;2023-06-22T07:52:12;32.40;52.40
14877;DHT22;69691;48.172;17.070;2023-06-22T07:54:38;32.50;51.10
14877;DHT22;69691;48.172;17.070;2023-06-22T07:57:04;32.50;51.20
14877;DHT22;69691;48.172;17.070;2023-06-22T07:59:30;32.70;51.20
14877;DHT22;69691;48.172;17.070;2023-06-22T08:01:56;32.60;52.10
14877;DHT22;69691;48.172;17.070;2023-06-22T08:04:22;32.50;52.50
14877;DHT22;69691;48.172;17.070;2023-06-22T08:06:48;32.50;51.40
14877;DHT22;69691;48.172;17.070;2023-06-22T08:09:14;32.50;51.40
14877;DHT22;69691;48.172;17.070;2023-06-22T08:11:41;32.60;51.00
14877;DHT22;69691;48.172;17.070;2023-06-22T08:14:06;32.50;50.60
14877;DHT22;69691;48.172;17.070;2023-06-22T08:16:32;32.40;51.00
14877;DHT22;69691;48.172;17.070;2023-06-22T08:18:58;32.30;51.50
14877;DHT22;69691;48.172;17.070;2023-06-22T08:21:24;32.40;52.00
14877;DHT22;69691;48.172;17.070;2023-06-22T08:23:50;32.50;51.80
14877;DHT22;69691;48.172;17.070;2023-06-22T08:30:07;32.60;50.80
14877;DHT22;69691;48.172;17.070;2023-06-22T08:32:33;32.50;51.20
14877;DHT22;69691;48.172;17.070;2023-06-22T08:34:58;32.50;50.90
14877;DHT22;69691;48.172;17.070;2023-06-22T08:37:24;32.20;51.00
14877;DHT22;69691;48.172;17.070;2023-06-22T08:39:57;31.80;51.20
14877;DHT22;69691;48.172;17.070;2023-06-22T08:42:24;31.60;51.80
14877;DHT22;69691;48.172;17.070;2023-06-22T08:44:51;31.50;53.10
14877;DHT22;69691;48.172;17.070;2023-06-22T08:47:17;31.40;52.90
14877;DHT22;69691;48.172;17.070;2023-06-22T08:49:42;31.30;53.10
14877;DHT22;69691;48.172;17.070;2023-06-22T08:52:08;31.20;53.10
14877;DHT22;69691;48.172;17.070;2023-06-22T08:54:34;31.30;53.20
14877;DHT22;69691;48.172;17.070;2023-06-22T08:57:03;31.40;52.60
14877;DHT22;69691;48.172;17.070;2023-06-22T08:59:29;31.50;53.30
14877;DHT22;69691;48.172;17.070;2023-06-22T09:01:55;31.50;52.60
14877;DHT22;69691;48.172;17.070;2023-06-22T09:04:22;31.50;52.30
14877;DHT22;69691;48.172;17.070;2023-06-22T09:06:48;31.50;52.10
14877;DHT22;69691;48.172;17.070;2023-06-22T09:09:16;31.60;51.80
14877;DHT22;69691;48.172;17.070;2023-06-22T09:11:42;31.40;52.20
14877;DHT22;69691;48.172;17.070;2023-06-22T09:14:09;31.50;51.80
14877;DHT22;69691;48.172;17.070;2023-06-22T09:16:35;31.50;51.50
14877;DHT22;69691;48.172;17.070;2023-06-22T09:19:01;31.40;51.80
14877;DHT22;69691;48.172;17.070;2023-06-22T09:21:27;31.30;51.80
14877;DHT22;69691;48.172;17.070;2023-06-22T09:23:53;31.30;52.10
14877;DHT22;69691;48.172;17.070;2023-06-22T09:26:19;31.30;52.10
14877;DHT22;69691;48.172;17.070;2023-06-22T09:28:45;31.50;51.60
14877;DHT22;69691;48.172;17.070;2023-06-22T09:31:11;31.50;51.40
14877;DHT22;69691;48.172;17.070;2023-06-22T09:33:37;31.40;51.20
14877;DHT22;69691;48.172;17.070;2023-06-22T09:36:05;31.40;51.10
14877;DHT22;69691;48.172;17.070;2023-06-22T09:38:38;31.50;50.40
14877;DHT22;69691;48.172;17.070;2023-06-22T09:41:04;31.40;50.90
14877;DHT22;69691;48.172;17.070;2023-06-22T09:43:32;31.30;50.60
14877;DHT22;69691;48.172;17.070;2023-06-22T09:46:01;31.30;51.40
14877;DHT22;69691;48.172;17.070;2023-06-22T09:48:28;31.30;51.70
14877;DHT22;69691;48.172;17.070;2023-06-22T09:50:55;31.50;51.70
14877;DHT22;69691;48.172;17.070;2023-06-22T09:53:22;31.60;51.30
14877;DHT22;69691;48.172;17.070;2023-06-22T09:55:48;31.70;51.00
14877;DHT22;69691;48.172;17.070;2023-06-22T09:58:13;31.70;50.70
14877;DHT22;69691;48.172;17.070;2023-06-22T10:00:39;31.70;50.60
14877;DHT22;69691;48.172;17.070;2023-06-22T10:03:07;31.50;51.40
14877;DHT22;69691;48.172;17.070;2023-06-22T10:05:33;31.50;51.30
14877;DHT22;69691;48.172;17.070;2023-06-22T10:07:59;31.60;51.30
14877;DHT22;69691;48.172;17.070;2023-06-22T10:10:25;31.50;50.50
14877;DHT22;69691;48.172;17.070;2023-06-22T10:13:01;31.50;50.50
14877;DHT22;69691;48.172;17.070;2023-06-22T10:15:29;31.40;50.60
14877;DHT22;69691;48.172;17.070;2023-06-22T10:17:55;31.30;50.60
14877;DHT22;69691;48.172;17.070;2023-06-22T10:20:21;31.30;50.60
14877;DHT22;69691;48.172;17.070;2023-06-22T10:22:47;31.30;50.20
14877;DHT22;69691;48.172;17.070;2023-06-22T10:25:13;31.40;49.90
14877;DHT22;69691;48.172;17.070;2023-06-22T10:27:39;31.40;49.30
14877;DHT22;69691;48.172;17.070;2023-06-22T10:30:09;31.40;49.50
14877;DHT22;69691;48.172;17.070;2023-06-22T10:32:37;31.50;49.40
14877;DHT22;69691;48.172;17.070;2023-06-22T10:35:03;31.50;49.10
14877;DHT22;69691;48.172;17.070;2023-06-22T10:37:29;31.40;48.80
14877;DHT22;69691;48.172;17.070;2023-06-22T10:39:55;31.40;48.70
14877;DHT22;69691;48.172;17.070;2023-06-22T10:42:21;31.30;48.60
14877;DHT22;69691;48.172;17.070;2023-06-22T10:44:47;31.30;49.40
14877;DHT22;69691;48.172;17.070;2023-06-22T10:47:13;31.40;50.20
14877;DHT22;69691;48.172;17.070;2023-06-22T10:49:39;31.50;49.50
14877;DHT22;69691;48.172;17.070;2023-06-22T10:52:07;31.50;49.80
14877;DHT22;69691;48.172;17.070;2023-06-22T10:54:34;31.40;47.80
14877;DHT22;69691;48.172;17.070;2023-06-22T10:57:01;31.40;48.50
14877;DHT22;69691;48.172;17.070;2023-06-22T10:59:28;31.50;48.50
14877;DHT22;69691;48.172;17.070;2023-06-22T11:01:58;31.50;48.60
14877;DHT22;69691;48.172;17.070;2023-06-22T11:04:24;31.50;48.80
14877;DHT22;69691;48.172;17.070;2023-06-22T11:06:50;31.50;49.70
14877;DHT22;69691;48.172;17.070;2023-06-22T11:12:35;31.60;49.10
14877;DHT22;69691;48.172;17.070;2023-06-22T11:15:01;31.50;49.70
14877;DHT22;69691;48.172;17.070;2023-06-22T11:17:27;31.60;50.10
14877;DHT22;69691;48.172;17.070;2023-06-22T11:19:53;31.70;51.00
14877;DHT22;69691;48.172;17.070;2023-06-22T11:22:19;31.60;50.00
14877;DHT22;69691;48.172;17.070;2023-06-22T11:24:45;31.70;49.40
14877;DHT22;69691;48.172;17.070;2023-06-22T11:27:11;31.80;49.10
14877;DHT22;69691;48.172;17.070;2023-06-22T11:29:36;31.80;49.30
14877;DHT22;69691;48.172;17.070;2023-06-22T11:32:05;31.70;49.60
14877;DHT22;69691;48.172;17.070;2023-06-22T11:34:32;31.70;49.50
14877;DHT22;69691;48.172;17.070;2023-06-22T11:36:57;31.70;49.60
14877;DHT22;69691;48.172;17.070;2023-06-22T11:39:23;31.80;49.70
14877;DHT22;69691;48.172;17.070;2023-06-22T11:41:49;31.70;50.10
14877;DHT22;69691;48.172;17.070;2023-06-22T11:44:15;31.70;50.60
14877;DHT22;69691;48.172;17.070;2023-06-22T11:46:41;31.80;50.40
14877;DHT22;69691;48.172;17.070;2023-06-22T11:49:07;31.80;50.30
14877;DHT22;69691;48.172;17.070;2023-06-22T11:51:33;31.90;49.70
14877;DHT22;69691;48.172;17.070;2023-06-22T11:53:59;32.00;49.50
14877;DHT22;69691;48.172;17.070;2023-06-22T11:56:25;32.00;49.90
14877;DHT22;69691;48.172;17.070;2023-06-22T11:58:51;32.00;49.10
14877;DHT22;69691;48.172;17.070;2023-06-22T12:01:16;32.00;48.80
14877;DHT22;69691;48.172;17.070;2023-06-22T12:03:42;31.90;49.00
14877;DHT22;69691;48.172;17.070;2023-06-22T12:06:09;31.90;49.20
14877;DHT22;69691;48.172;17.070;2023-06-22T12:08:35;31.90;48.50
14877;DHT22;69691;48.172;17.070;2023-06-22T12:11:01;31.90;48.90
14877;DHT22;69691;48.172;17.070;2023-06-22T12:13:27;31.90;49.60
14877;DHT22;69691;48.172;17.070;2023-06-22T12:15:52;31.90;51.60
14877;DHT22;69691;48.172;17.070;2023-06-22T12:18:18;32.00;50.50
14877;DHT22;69691;48.172;17.070;2023-06-22T12:20:47;32.20;50.90
14877;DHT22;69691;48.172;17.070;2023-06-22T12:23:13;32.20;50.10
14877;DHT22;69691;48.172;17.070;2023-06-22T12:25:39;32.30;50.20
14877;DHT22;69691;48.172;17.070;2023-06-22T12:28:05;32.30;50.30
14877;DHT22;69691;48.172;17.070;2023-06-22T12:30:32;32.40;50.30
14877;DHT22;69691;48.172;17.070;2023-06-22T12:32:58;32.40;50.00
14877;DHT22;69691;48.172;17.070;2023-06-22T12:35:24;32.40;50.00
14877;DHT22;69691;48.172;17.070;2023-06-22T12:37:50;32.40;50.20
14877;DHT22;69691;48.172;17.070;2023-06-22T12:40:16;32.40;50.80
14877;DHT22;69691;48.172;17.070;2023-06-22T12:42:42;32.40;50.30
14877;DHT22;69691;48.172;17.070;2023-06-22T12:45:08;32.50;50.80
14877;DHT22;69691;48.172;17.070;2023-06-22T12:47:35;32.50;51.10
14877;DHT22;69691;48.172;17.070;2023-06-22T12:50:00;32.60;50.40
14877;DHT22;69691;48.172;17.070;2023-06-22T12:52:26;32.60;49.00
14877;DHT22;69691;48.172;17.070;2023-06-22T12:54:52;32.60;49.00
14877;DHT22;69691;48.172;17.070;2023-06-22T12:57:19;32.70;50.00
14877;DHT22;69691;48.172;17.070;2023-06-22T12:59:45;32.70;50.10
14877;DHT22;69691;48.172;17.070;2023-06-22T13:02:11;32.80;50.40
14877;DHT22;69691;48.172;17.070;2023-06-22T13:04:37;32.90;50.40
14877;DHT22;69691;48.172;17.070;2023-06-22T13:07:03;32.90;50.10
14877;DHT22;69691;48.172;17.070;2023-06-22T13:09:29;32.90;50.30
14877;DHT22;69691;48.172;17.070;2023-06-22T13:11:55;33.00;50.40
14877;DHT22;69691;48.172;17.070;2023-06-22T13:14:20;33.10;49.40
14877;DHT22;69691;48.172;17.070;2023-06-22T13:16:46;33.10;49.80
14877;DHT22;69691;48.172;17.070;2023-06-22T13:19:12;33.30;48.90
14877;DHT22;69691;48.172;17.070;2023-06-22T13:21:38;33.30;48.20
14877;DHT22;69691;48.172;17.070;2023-06-22T13:24:04;33.30;49.00
14877;DHT22;69691;48.172;17.070;2023-06-22T13:26:31;33.40;47.60
14877;DHT22;69691;48.172;17.070;2023-06-22T13:28:58;33.30;46.70
14877;DHT22;69691;48.172;17.070;2023-06-22T13:31:23;33.50;47.50
14877;DHT22;69691;48.172;17.070;2023-06-22T13:33:49;33.60;46.60
14877;DHT22;69691;48.172;17.070;2023-06-22T13:36:18;33.80;46.20
14877;DHT22;69691;48.172;17.070;2023-06-22T13:38:44;33.90;47.00
14877;DHT22;69691;48.172;17.070;2023-06-22T13:41:10;34.00;46.00
14877;DHT22;69691;48.172;17.070;2023-06-22T13:43:36;33.90;46.20
14877;DHT22;69691;48.172;17.070;2023-06-22T13:46:01;33.90;46.10
14877;DHT22;69691;48.172;17.070;2023-06-22T13:48:27;34.10;46.40
14877;DHT22;69691;48.172;17.070;2023-06-22T13:50:54;34.10;46.50
14877;DHT22;69691;48.172;17.070;2023-06-22T13:53:20;34.10;46.30
14877;DHT22;69691;48.172;17.070;2023-06-22T13:55:46;34.20;45.40
14877;DHT22;69691;48.172;17.070;2023-06-22T13:58:13;34.20;45.00
14877;DHT22;69691;48.172;17.070;2023-06-22T14:00:39;34.20;45.40
14877;DHT22;69691;48.172;17.070;2023-06-22T14:03:05;34.20;45.00
14877;DHT22;69691;48.172;17.070;2023-06-22T14:05:30;34.10;44.50
14877;DHT22;69691;48.172;17.070;2023-06-22T14:07:56;34.20;44.40
14877;DHT22;69691;48.172;17.070;2023-06-22T14:10:22;34.10;44.50
14877;DHT22;69691;48.172;17.070;2023-06-22T14:12:48;34.20;44.90
14877;DHT22;69691;48.172;17.070;2023-06-22T14:15:14;34.20;44.90
14877;DHT22;69691;48.172;17.070;2023-06-22T14:17:40;34.30;44.60
14877;DHT22;69691;48.172;17.070;2023-06-22T14:20:06;34.30;44.40
14877;DHT22;69691;48.172;17.070;2023-06-22T14:22:34;34.20;43.90
14877;DHT22;69691;48.172;17.070;2023-06-22T14:28:05;34.00;44.40
14877;DHT22;69691;48.172;17.070;2023-06-22T14:30:31;33.80;44.30
14877;DHT22;69691;48.172;17.070;2023-06-22T14:32:57;33.70;44.60
14877;DHT22;69691;48.172;17.070;2023-06-22T14:35:23;33.60;44.70
14877;DHT22;69691;48.172;17.070;2023-06-22T14:37:50;33.50;45.40
14877;DHT22;69691;48.172;17.070;2023-06-22T14:40:16;33.40;44.60
14877;DHT22;69691;48.172;17.070;2023-06-22T14:42:41;33.40;44.90
14877;DHT22;69691;48.172;17.070;2023-06-22T14:45:08;33.30;44.80
14877;DHT22;69691;48.172;17.070;2023-06-22T14:47:34;33.30;44.50
14877;DHT22;69691;48.172;17.070;2023-06-22T14:49:59;33.20;45.20
14877;DHT22;69691;48.172;17.070;2023-06-22T14:52:28;33.10;46.20
14877;DHT22;69691;48.172;17.070;2023-06-22T14:54:55;33.00;47.80
14877;DHT22;69691;48.172;17.070;2023-06-22T14:57:21;33.00;47.90
14877;DHT22;69691;48.172;17.070;2023-06-22T14:59:49;32.90;48.00
14877;DHT22;69691;48.172;17.070;2023-06-22T15:02:15;32.80;47.60
14877;DHT22;69691;48.172;17.070;2023-06-22T15:04:41;32.80;47.50
14877;DHT22;69691;48.172;17.070;2023-06-22T15:07:07;32.70;47.60
14877;DHT22;69691;48.172;17.070;2023-06-22T15:09:33;32.60;48.30
14877;DHT22;69691;48.172;17.070;2023-06-22T15:11:59;32.50;48.50
14877;DHT22;69691;48.172;17.070;2023-06-22T15:14:27;32.40;48.20
14877;DHT22;69691;48.172;17.070;2023-06-22T15:16:53;32.30;48.30
14877;DHT22;69691;48.172;17.070;2023-06-22T15:19:19;32.30;48.70
14877;DHT22;69691;48.172;17.070;2023-06-22T15:21:45;32.30;49.10
14877;DHT22;69691;48.172;17.070;2023-06-22T15:24:11;32.40;49.60
14877;DHT22;69691;48.172;17.070;2023-06-22T15:26:37;32.40;49.40
14877;DHT22;69691;48.172;17.070;2023-06-22T15:29:04;32.40;49.60
14877;DHT22;69691;48.172;17.070;2023-06-22T15:31:30;32.40;49.50
14877;DHT22;69691;48.172;17.070;2023-06-22T15:33:56;32.40;49.50
14877;DHT22;69691;48.172;17.070;2023-06-22T15:36:24;32.40;49.70